CheckWX is a tool to help pilots better visualize weather data.  It is not intended as a substitute for an official pre-flight weather briefing.

20:21:29 UTC

PTYA METAR
Yap International Airport
Yap Island, Federated States of Micronesia
Current

31 mins ago

PTYA 161950Z VRB04KT 12SM FEW016 SCT130 BKN300 26/22 A2987 RMK SLP117 T02570223
Observed
Feb-16 @ 19:50 UTC
Wind
  • Variable at 4 KTS
Visibility
19,300 meters
Flight Rules
VFR
Cloud Levels
  • Few at 1,600' AGL
  • Scattered at 13,000' AGL
  • Broken at 30,000' AGL
Temperature
26°C / 79°F
Dewpoint
22°C / 72°F
Humidity
79%
Altimeter
29.87" Hg
Pressure
1011.52 hPa
Previous

2 hours ago

PTYA 161851Z VRB05KT 12SM FEW016 SCT130 BKN300 26/22 A2987 RMK SLP115 T02580224
Observed
Feb-16 @ 18:51 UTC
Wind
  • Variable at 5 KTS
Visibility
19,300 meters
Flight Rules
VFR
Cloud Levels
  • Few at 1,600' AGL
  • Scattered at 13,000' AGL
  • Broken at 30,000' AGL
Temperature
26°C / 79°F
Dewpoint
22°C / 72°F
Humidity
79%
Altimeter
29.87" Hg
Pressure
1011.52 hPa
Previous

2 hours ago

PTYA 161753Z 06008KT 12SM FEW016 SCT130 BKN300 26/23 A2987 RMK SLP115 8/171 T02640228 10276 20264 57014
Observed
Feb-16 @ 17:53 UTC
Wind
  • 060° at 8 KTS
Visibility
19,300 meters
Flight Rules
VFR
Cloud Levels
  • Few at 1,600' AGL
  • Scattered at 13,000' AGL
  • Broken at 30,000' AGL
Temperature
26°C / 79°F
Dewpoint
23°C / 73°F
Humidity
84%
Altimeter
29.87" Hg
Pressure
1011.52 hPa